createdAt,value
2019-04-29T00:00:42.551Z,7.33
2019-04-29T00:03:09.265Z,6.83
2019-04-29T00:05:36.217Z,6.30
2019-04-29T00:08:02.946Z,6.40
2019-04-29T00:10:30.353Z,6.80
2019-04-29T00:12:56.936Z,7.00
2019-04-29T00:30:46.535Z,5.90
2019-04-29T00:33:13.431Z,6.33
2019-04-29T00:35:40.966Z,6.33
2019-04-29T00:38:36.525Z,6.87
2019-04-29T00:41:27.644Z,7.10
2019-04-29T00:43:59.859Z,6.97
2019-04-29T00:46:27.601Z,7.20
2019-04-29T00:48:54.589Z,6.70
2019-04-29T00:51:21.775Z,6.70
2019-04-29T00:53:50.684Z,7.00
2019-04-29T00:56:17.558Z,7.00
2019-04-29T00:58:45.321Z,6.73
2019-04-29T01:01:17.215Z,7.47
2019-04-29T01:03:47.101Z,7.00
2019-04-29T01:06:13.861Z,7.40
2019-04-29T01:08:41.568Z,6.53
2019-04-29T01:11:08.911Z,7.37
2019-04-29T01:13:35.532Z,7.90
2019-04-29T01:16:02.180Z,7.53
2019-04-29T01:18:28.797Z,8.60
2019-04-29T01:20:55.445Z,7.93
2019-04-29T01:23:22.136Z,8.53
2019-04-29T01:25:52.704Z,7.50
2019-04-29T01:28:25.363Z,7.50
2019-04-29T01:30:56.408Z,8.77
2019-04-29T01:33:23.324Z,8.70
2019-04-29T01:35:52.612Z,8.10
2019-04-29T01:38:19.213Z,8.60
2019-04-29T01:40:52.570Z,9.27
2019-04-29T01:43:19.176Z,9.53
2019-04-29T01:45:45.900Z,9.90
2019-04-29T01:48:13.115Z,9.70
2019-04-29T01:50:39.813Z,9.20
2019-04-29T01:53:06.538Z,10.20
2019-04-29T01:55:33.363Z,9.90
2019-04-29T01:58:00.006Z,9.43
2019-04-29T02:00:26.628Z,10.30
2019-04-29T02:02:53.595Z,12.13
2019-04-29T02:05:20.295Z,11.40
2019-04-29T02:07:46.955Z,11.10
2019-04-29T02:10:23.300Z,10.80
2019-04-29T02:12:49.925Z,11.80
2019-04-29T02:15:16.607Z,12.10
2019-04-29T02:17:43.300Z,13.10
2019-04-29T02:20:10.773Z,12.57
2019-04-29T02:23:02.937Z,12.47
2019-04-29T02:25:34.042Z,11.90
2019-04-29T02:28:00.640Z,12.67
2019-04-29T02:30:54.152Z,13.50
2019-04-29T02:33:20.910Z,13.10
2019-04-29T02:35:47.649Z,13.07
2019-04-29T02:38:36.399Z,13.10
2019-04-29T02:41:10.116Z,13.10
2019-04-29T02:43:38.540Z,12.63
2019-04-29T02:46:05.652Z,12.83
2019-04-29T02:48:34.649Z,14.03
2019-04-29T02:51:01.201Z,14.33
2019-04-29T02:53:27.837Z,13.33
2019-04-29T02:55:56.344Z,13.70
2019-04-29T02:58:29.915Z,13.83
2019-04-29T03:01:16.292Z,14.00
2019-04-29T03:03:58.529Z,13.67
2019-04-29T03:06:25.130Z,14.10
2019-04-29T03:08:51.830Z,14.30
2019-04-29T03:11:19.281Z,15.00
2019-04-29T03:13:46.011Z,16.50
2019-04-29T03:16:12.962Z,15.23
2019-04-29T03:18:46.110Z,15.23
2019-04-29T03:21:26.484Z,15.30
2019-04-29T03:23:53.389Z,15.57
2019-04-29T03:26:20.228Z,15.23
2019-04-29T03:28:46.941Z,17.40
2019-04-29T03:31:13.628Z,17.77
2019-04-29T03:33:40.343Z,16.83
2019-04-29T03:36:07.171Z,17.40
2019-04-29T03:38:33.852Z,19.07
2019-04-29T03:41:00.435Z,17.33
2019-04-29T03:43:27.054Z,17.07
2019-04-29T03:45:53.701Z,18.63
2019-04-29T03:48:20.345Z,17.40
2019-04-29T03:50:46.940Z,18.50
2019-04-29T03:53:13.558Z,18.30
2019-04-29T03:55:41.300Z,18.50
2019-04-29T03:58:08.054Z,19.20
2019-04-29T04:00:34.764Z,19.33
2019-04-29T04:03:08.279Z,19.83
2019-04-29T04:05:56.560Z,18.60
2019-04-29T04:08:29.507Z,19.30
2019-04-29T04:10:56.204Z,19.30
2019-04-29T04:13:22.834Z,20.60
2019-04-29T04:15:49.659Z,20.00
2019-04-29T04:18:22.065Z,19.10
2019-04-29T04:20:48.890Z,21.33
2019-04-29T04:23:15.518Z,21.53
2019-04-29T04:25:42.452Z,22.20
2019-04-29T04:28:09.347Z,21.30
2019-04-29T04:30:36.089Z,22.13
2019-04-29T04:33:02.948Z,22.37
2019-04-29T04:35:29.705Z,21.83
2019-04-29T04:37:56.384Z,21.00
2019-04-29T04:40:29.484Z,22.50
2019-04-29T04:42:56.408Z,22.13
2019-04-29T04:45:23.011Z,22.50
2019-04-29T04:47:49.630Z,20.93
2019-04-29T04:50:16.732Z,21.97
2019-04-29T04:52:43.389Z,21.00
2019-04-29T04:55:10.722Z,21.47
2019-04-29T04:57:37.583Z,23.47
2019-04-29T05:00:07.619Z,21.27
2019-04-29T05:02:34.468Z,21.90
2019-04-29T05:05:01.081Z,20.20
2019-04-29T05:07:27.841Z,22.30
2019-04-29T05:09:54.918Z,23.03
2019-04-29T05:12:21.621Z,22.07
2019-04-29T05:14:48.389Z,21.90
2019-04-29T05:17:15.027Z,21.53
2019-04-29T05:19:41.784Z,22.93
2019-04-29T05:22:08.534Z,22.43
2019-04-29T05:24:35.630Z,22.37
2019-04-29T05:27:02.373Z,22.97
2019-04-29T05:29:29.159Z,23.10
2019-04-29T05:31:56.157Z,23.50
2019-04-29T05:34:24.723Z,23.27
2019-04-29T05:36:57.754Z,23.40
2019-04-29T05:39:27.789Z,25.03
2019-04-29T05:41:54.483Z,24.23
2019-04-29T05:44:28.112Z,26.60
2019-04-29T05:46:57.997Z,25.60
2019-04-29T05:49:33.546Z,23.93
2019-04-29T05:52:09.537Z,25.67
2019-04-29T05:54:36.116Z,24.07
2019-04-29T05:57:02.831Z,26.17
2019-04-29T05:59:29.540Z,26.93
2019-04-29T06:01:56.714Z,26.23
2019-04-29T06:04:23.336Z,26.67
2019-04-29T06:06:49.982Z,26.23
2019-04-29T06:09:18.219Z,26.10
2019-04-29T06:11:45.413Z,25.40
2019-04-29T06:14:12.065Z,26.93
2019-04-29T06:16:38.935Z,28.50
2019-04-29T06:19:06.024Z,27.27
2019-04-29T06:21:32.904Z,29.37
2019-04-29T06:24:04.336Z,30.90
2019-04-29T06:26:29.692Z,29.80
2019-04-29T06:28:56.282Z,26.83
2019-04-29T06:31:22.859Z,29.90
2019-04-29T06:33:49.447Z,30.10
2019-04-29T06:36:16.202Z,28.63
2019-04-29T06:38:42.878Z,26.33
2019-04-29T06:41:10.831Z,23.50
2019-04-29T06:43:37.842Z,23.00
2019-04-29T06:46:04.613Z,22.20
2019-04-29T06:48:31.400Z,22.17
2019-04-29T06:50:58.052Z,20.97
2019-04-29T06:53:24.638Z,21.27
2019-04-29T06:55:51.235Z,20.00
2019-04-29T06:58:17.986Z,20.27
2019-04-29T07:00:44.696Z,18.13
2019-04-29T07:03:11.297Z,18.43
2019-04-29T07:05:37.948Z,19.43
2019-04-29T07:08:04.769Z,20.47
2019-04-29T07:10:31.665Z,19.90
2019-04-29T07:12:58.287Z,20.27
2019-04-29T07:15:24.907Z,20.20
2019-04-29T07:17:51.575Z,21.37
2019-04-29T07:20:18.298Z,23.03
2019-04-29T07:22:44.896Z,21.87
2019-04-29T07:25:11.721Z,22.13
2019-04-29T07:27:43.126Z,18.77
2019-04-29T07:30:08.649Z,19.60
2019-04-29T07:32:35.288Z,19.33
2019-04-29T07:35:05.831Z,16.33
2019-04-29T07:37:34.067Z,16.00
2019-04-29T07:39:59.232Z,16.50
2019-04-29T07:42:31.956Z,17.00
2019-04-29T07:45:12.660Z,15.90
2019-04-29T07:47:40.097Z,17.57
2019-04-29T07:50:07.366Z,16.63
2019-04-29T07:52:33.989Z,15.90
2019-04-29T07:55:00.572Z,16.10
2019-04-29T07:57:27.497Z,15.80
2019-04-29T07:59:54.158Z,15.63
2019-04-29T08:02:20.856Z,14.70
2019-04-29T08:04:47.487Z,17.33
2019-04-29T08:07:14.575Z,16.03
2019-04-29T08:09:44.155Z,18.03
2019-04-29T08:12:10.145Z,18.63
2019-04-29T08:14:38.322Z,17.60
2019-04-29T08:17:05.466Z,19.07
2019-04-29T08:19:32.177Z,19.30
2019-04-29T08:21:58.822Z,20.13
2019-04-29T08:24:26.437Z,20.60
2019-04-29T08:26:53.220Z,22.10
2019-04-29T08:29:20.013Z,21.40
2019-04-29T08:31:46.806Z,22.93
2019-04-29T08:34:13.539Z,22.03
2019-04-29T08:36:40.171Z,22.10
2019-04-29T08:39:08.917Z,20.77
2019-04-29T08:41:35.950Z,21.23
2019-04-29T08:44:16.375Z,21.20
2019-04-29T08:46:51.570Z,22.80
2019-04-29T08:49:14.790Z,21.57
2019-04-29T08:51:41.691Z,22.03
2019-04-29T08:54:08.346Z,23.23
2019-04-29T08:56:36.344Z,22.63
2019-04-29T08:59:03.486Z,25.10
2019-04-29T09:01:34.161Z,22.70
2019-04-29T09:03:59.170Z,21.47
2019-04-29T09:06:27.779Z,22.93
2019-04-29T09:08:59.235Z,24.80
2019-04-29T09:11:27.299Z,23.87
2019-04-29T09:13:54.300Z,23.00
2019-04-29T09:16:21.279Z,22.03
2019-04-29T09:18:49.564Z,21.27
2019-04-29T09:21:16.158Z,19.60
2019-04-29T09:23:42.826Z,20.80
2019-04-29T09:26:19.005Z,20.53
2019-04-29T09:28:49.624Z,20.70
2019-04-29T09:31:17.131Z,22.93
2019-04-29T09:33:48.402Z,20.03
2019-04-29T09:36:13.881Z,19.47
2019-04-29T09:38:40.991Z,20.33
2019-04-29T09:41:35.023Z,21.40
2019-04-29T09:44:10.997Z,20.27
2019-04-29T09:46:37.715Z,20.47
2019-04-29T09:49:04.333Z,18.97
2019-04-29T09:51:31.047Z,19.70
2019-04-29T09:53:57.708Z,18.87
2019-04-29T09:56:24.296Z,20.10
2019-04-29T09:59:10.645Z,19.27
2019-04-29T10:01:44.669Z,20.83
2019-04-29T10:04:36.759Z,19.70
2019-04-29T10:07:05.279Z,18.40
2019-04-29T10:09:31.999Z,19.23
2019-04-29T10:11:58.641Z,19.57
2019-04-29T10:14:25.272Z,21.00
2019-04-29T10:17:04.975Z,19.33
2019-04-29T10:19:54.977Z,18.97
2019-04-29T10:22:21.584Z,18.00
2019-04-29T10:24:48.241Z,17.97
2019-04-29T10:27:15.024Z,17.90
2019-04-29T10:29:46.093Z,18.63
2019-04-29T10:32:12.830Z,16.90
2019-04-29T10:34:39.552Z,17.97
2019-04-29T10:37:06.351Z,18.40
2019-04-29T10:40:10.528Z,17.87
2019-04-29T10:42:35.436Z,19.20
2019-04-29T10:45:11.921Z,18.13
2019-04-29T10:48:01.210Z,17.23
2019-04-29T10:50:31.234Z,17.47
2019-04-29T10:52:58.212Z,17.43
2019-04-29T10:55:29.868Z,16.63
2019-04-29T10:57:54.081Z,15.70
2019-04-29T11:00:44.200Z,17.10
2019-04-29T11:03:11.257Z,15.67
2019-04-29T11:05:59.979Z,17.10
2019-04-29T11:08:19.485Z,16.90
2019-04-29T11:10:46.276Z,17.97
2019-04-29T11:13:12.991Z,16.60
2019-04-29T11:15:39.607Z,17.20
2019-04-29T11:18:06.964Z,16.50
2019-04-29T11:20:34.597Z,17.30
2019-04-29T11:23:26.941Z,17.00
2019-04-29T11:26:11.452Z,16.47
2019-04-29T11:28:38.420Z,16.90
2019-04-29T11:31:09.585Z,17.23
2019-04-29T11:33:41.667Z,16.67
2019-04-29T11:36:10.487Z,16.77
2019-04-29T11:38:38.737Z,15.17
2019-04-29T11:41:05.739Z,16.63
2019-04-29T11:43:32.879Z,16.67
2019-04-29T11:46:00.026Z,15.07
2019-04-29T11:48:26.938Z,16.10
2019-04-29T11:51:05.109Z,14.90
2019-04-29T11:53:32.078Z,16.30
2019-04-29T11:55:59.150Z,17.63
2019-04-29T11:58:51.369Z,16.13
2019-04-29T12:01:39.258Z,14.87
2019-04-29T12:04:06.034Z,14.40
2019-04-29T12:06:32.960Z,15.57
2019-04-29T12:08:59.800Z,15.47
2019-04-29T12:11:28.632Z,15.30
2019-04-29T12:14:04.703Z,13.70
2019-04-29T12:16:35.728Z,14.30
2019-04-29T12:19:17.043Z,14.97
2019-04-29T12:21:44.181Z,14.03
2019-04-29T12:24:10.993Z,13.90
2019-04-29T12:26:43.195Z,15.33
2019-04-29T12:29:06.098Z,13.90
2019-04-29T12:31:49.344Z,14.67
2019-04-29T12:34:39.616Z,14.27
2019-04-29T12:37:15.960Z,13.50
2019-04-29T12:40:09.743Z,13.23
2019-04-29T12:43:00.215Z,13.37
2019-04-29T12:45:35.049Z,14.13
2019-04-29T12:48:01.687Z,14.30
2019-04-29T12:50:28.463Z,13.57
2019-04-29T12:52:56.181Z,14.30
2019-04-29T12:55:44.105Z,14.87
2019-04-29T12:57:59.034Z,14.63
2019-04-29T13:00:29.419Z,14.00
2019-04-29T13:03:02.945Z,13.67
2019-04-29T13:05:57.148Z,12.73
2019-04-29T13:08:16.634Z,13.07
2019-04-29T13:10:52.010Z,13.77
2019-04-29T13:13:20.191Z,14.70
2019-04-29T13:16:06.147Z,13.20
2019-04-29T13:19:10.630Z,13.90
2019-04-29T13:21:24.768Z,13.30
2019-04-29T13:23:59.548Z,13.30
2019-04-29T13:26:27.865Z,14.73
2019-04-29T13:29:00.309Z,14.37
2019-04-29T13:31:20.105Z,13.53
2019-04-29T13:33:50.909Z,12.80
2019-04-29T13:36:19.765Z,12.57
2019-04-29T13:38:44.372Z,13.63
2019-04-29T13:41:14.116Z,12.70
2019-04-29T13:43:39.936Z,13.43
2019-04-29T13:46:31.985Z,13.93
2019-04-29T13:49:18.637Z,14.43
2019-04-29T13:51:45.354Z,13.77
2019-04-29T13:54:11.979Z,13.60
2019-04-29T13:56:54.814Z,12.47
2019-04-29T13:59:10.703Z,12.73
2019-04-29T14:02:01.427Z,14.07
2019-04-29T14:04:28.599Z,12.90
2019-04-29T14:06:57.711Z,12.47
2019-04-29T14:09:24.433Z,12.93
2019-04-29T14:12:01.336Z,12.80
2019-04-29T14:14:22.776Z,13.43
2019-04-29T14:16:48.744Z,13.07
2019-04-29T14:19:20.607Z,13.90
2019-04-29T14:21:45.668Z,12.87
2019-04-29T14:24:13.913Z,12.53
2019-04-29T14:26:42.073Z,12.87
2019-04-29T14:29:09.775Z,14.90
2019-04-29T14:31:36.451Z,14.67
2019-04-29T14:34:20.236Z,14.43
2019-04-29T14:36:45.643Z,13.80
2019-04-29T14:39:13.105Z,13.57
2019-04-29T14:41:45.844Z,12.90
2019-04-29T14:44:41.496Z,15.33
2019-04-29T14:47:16.419Z,11.00
2019-04-29T14:49:46.512Z,12.00
2019-04-29T14:52:14.891Z,10.20
2019-04-29T14:54:43.216Z,9.93
2019-04-29T14:57:13.204Z,10.03
2019-04-29T14:59:40.460Z,11.00
2019-04-29T15:02:16.974Z,10.90
2019-04-29T15:04:45.326Z,10.13
2019-04-29T15:07:12.158Z,11.50
2019-04-29T15:09:55.969Z,9.60
2019-04-29T15:12:52.377Z,9.43
2019-04-29T15:15:24.848Z,10.03
2019-04-29T15:18:16.202Z,8.70
2019-04-29T15:20:49.441Z,8.60
2019-04-29T15:23:27.962Z,9.03
2019-04-29T15:25:44.920Z,9.43
2019-04-29T15:28:11.586Z,8.80
2019-04-29T15:30:38.706Z,8.60
2019-04-29T15:33:05.457Z,8.80
2019-04-29T15:35:32.813Z,9.03
2019-04-29T15:37:59.707Z,9.03
2019-04-29T15:40:28.560Z,8.47
2019-04-29T15:42:55.402Z,8.67
2019-04-29T15:45:22.487Z,9.50
2019-04-29T15:47:49.467Z,8.90
2019-04-29T15:50:19.435Z,7.73
2019-04-29T15:52:46.352Z,9.03
2019-04-29T15:55:13.647Z,8.17
2019-04-29T15:57:40.645Z,10.40
2019-04-29T16:00:21.666Z,9.60
2019-04-29T16:02:41.523Z,9.20
2019-04-29T16:05:18.687Z,8.50
2019-04-29T16:07:55.780Z,9.17
2019-04-29T16:10:41.027Z,8.77
2019-04-29T16:13:09.269Z,9.20
2019-04-29T16:15:37.056Z,9.20
2019-04-29T16:18:05.460Z,8.67
2019-04-29T16:20:32.411Z,8.40
2019-04-29T16:23:02.000Z,9.40
2019-04-29T16:25:28.956Z,8.70
2019-04-29T16:27:56.137Z,8.77
2019-04-29T16:30:25.970Z,8.53
2019-04-29T16:32:53.946Z,8.70
2019-04-29T16:35:23.669Z,8.80
2019-04-29T16:37:49.413Z,8.63
2019-04-29T16:40:17.670Z,8.13
2019-04-29T16:43:04.990Z,8.73
2019-04-29T16:45:51.558Z,7.80
2019-04-29T16:48:15.184Z,7.43
2019-04-29T16:50:41.982Z,8.93
2019-04-29T16:53:09.210Z,7.50
2019-04-29T16:55:42.896Z,7.53
2019-04-29T16:58:07.828Z,6.80
2019-04-29T17:00:35.348Z,7.40
2019-04-29T17:03:02.594Z,7.53
2019-04-29T17:05:30.073Z,6.60
2019-04-29T17:07:56.903Z,6.43
2019-04-29T17:10:44.488Z,5.77
2019-04-29T17:13:15.027Z,6.70
2019-04-29T17:15:44.616Z,6.57
2019-04-29T17:18:09.368Z,7.37
2019-04-29T17:20:36.788Z,7.23
2019-04-29T17:23:04.329Z,6.67
2019-04-29T17:25:36.709Z,6.80
2019-04-29T17:28:25.479Z,6.40
2019-04-29T17:31:20.646Z,6.50
2019-04-29T17:33:56.738Z,6.50
2019-04-29T17:36:25.821Z,6.00
2019-04-29T17:38:53.615Z,5.90
2019-04-29T17:41:20.768Z,5.90
2019-04-29T17:44:06.591Z,6.40
2019-04-29T17:47:01.873Z,6.10
2019-04-29T17:50:01.936Z,6.90
2019-04-29T17:52:30.267Z,5.70
2019-04-29T17:55:06.207Z,6.10
2019-04-29T17:57:41.965Z,5.57
2019-04-29T18:00:27.982Z,5.13
2019-04-29T18:03:10.968Z,5.87
2019-04-29T18:05:54.938Z,6.00
2019-04-29T18:08:23.295Z,6.50
2019-04-29T18:10:55.611Z,7.30
2019-04-29T18:13:26.494Z,6.63
2019-04-29T18:16:01.510Z,6.83
2019-04-29T18:18:30.575Z,6.07
2019-04-29T18:21:30.374Z,6.27
2019-04-29T18:24:21.633Z,5.00
2019-04-29T18:26:56.066Z,5.57
2019-04-29T18:29:23.350Z,6.70
2019-04-29T18:31:50.198Z,6.27
2019-04-29T18:34:17.168Z,6.37
2019-04-29T18:36:45.678Z,6.13
2019-04-29T18:39:16.022Z,5.37
2019-04-29T18:41:44.769Z,4.37
2019-04-29T18:44:18.939Z,4.90
2019-04-29T18:46:45.909Z,4.70
2019-04-29T18:49:08.905Z,5.27
2019-04-29T18:51:35.655Z,5.37
2019-04-29T18:54:35.618Z,6.20
2019-04-29T18:57:03.101Z,6.00
2019-04-29T18:59:33.320Z,4.87
2019-04-29T19:02:00.923Z,5.50
2019-04-29T19:04:35.433Z,6.03
2019-04-29T19:07:02.631Z,5.53
2019-04-29T19:09:35.901Z,5.00
2019-04-29T19:12:01.912Z,5.27
2019-04-29T19:14:28.770Z,7.17
2019-04-29T19:16:59.954Z,6.07
2019-04-29T19:19:25.350Z,5.97
2019-04-29T19:21:52.329Z,6.23
2019-04-29T19:24:19.054Z,6.40
2019-04-29T19:27:00.516Z,5.43
2019-04-29T19:29:25.947Z,5.80
2019-04-29T19:31:54.919Z,5.53
2019-04-29T19:34:21.623Z,5.17
2019-04-29T19:36:50.678Z,5.63
2019-04-29T19:39:21.677Z,5.00
2019-04-29T19:41:50.498Z,5.43
2019-04-29T19:44:15.515Z,6.20
2019-04-29T19:46:42.512Z,5.30
2019-04-29T19:49:10.140Z,5.00
2019-04-29T19:51:39.388Z,5.80
2019-04-29T19:54:05.818Z,5.60
2019-04-29T19:56:32.589Z,6.80
2019-04-29T19:59:10.541Z,7.47
2019-04-29T20:01:31.813Z,7.80
2019-04-29T20:04:17.675Z,6.57
2019-04-29T20:06:41.215Z,8.90
2019-04-29T20:09:17.292Z,8.63
2019-04-29T20:11:39.409Z,6.33
2019-04-29T20:14:17.597Z,8.30
2019-04-29T20:16:56.173Z,6.87
2019-04-29T20:19:30.745Z,6.17
2019-04-29T20:22:00.476Z,6.97
2019-04-29T20:24:26.473Z,6.10
2019-04-29T20:26:53.439Z,5.43
2019-04-29T20:29:20.846Z,5.47
2019-04-29T20:31:51.500Z,7.13
2019-04-29T20:34:23.771Z,5.87
2019-04-29T20:36:45.719Z,6.23
2019-04-29T20:39:16.960Z,11.07
2019-04-29T20:41:44.718Z,6.60
2019-04-29T20:44:11.170Z,6.43
2019-04-29T20:46:45.463Z,6.80
2019-04-29T20:49:07.311Z,45.67
2019-04-29T20:51:48.817Z,5.67
2019-04-29T20:54:13.405Z,6.30
2019-04-29T20:59:02.058Z,8.70
2019-04-29T21:01:36.422Z,5.40
2019-04-29T21:04:02.691Z,5.53
2019-04-29T21:06:32.706Z,4.70
2019-04-29T21:08:58.506Z,5.00
2019-04-29T21:11:33.092Z,5.30
2019-04-29T21:14:11.123Z,6.10
2019-04-29T21:16:41.420Z,5.60
2019-04-29T21:19:08.937Z,5.50
2019-04-29T21:21:36.828Z,6.97
2019-04-29T21:24:13.610Z,4.90
2019-04-29T21:26:37.929Z,5.07
2019-04-29T21:29:05.706Z,7.00
2019-04-29T21:31:32.807Z,6.20
2019-04-29T21:33:59.757Z,4.47
2019-04-29T21:36:50.655Z,5.40
2019-04-29T21:39:37.903Z,4.60
2019-04-29T21:42:28.084Z,5.20
2019-04-29T21:44:52.309Z,4.90
2019-04-29T21:47:19.596Z,4.83
2019-04-29T21:49:49.879Z,4.97
2019-04-29T21:52:15.409Z,4.80
2019-04-29T21:54:44.618Z,5.23
2019-04-29T21:57:11.057Z,5.13
2019-04-29T21:59:41.371Z,4.77
2019-04-29T22:02:11.523Z,4.53
2019-04-29T22:04:37.437Z,3.90
2019-04-29T22:07:07.973Z,4.07
2019-04-29T22:09:36.380Z,5.30
2019-04-29T22:12:05.469Z,4.90
2019-04-29T22:14:32.316Z,5.73
2019-04-29T22:16:59.113Z,4.60
2019-04-29T22:19:28.208Z,5.10
2019-04-29T22:21:59.779Z,6.17
2019-04-29T22:24:26.150Z,4.93
2019-04-29T22:26:58.210Z,5.70
2019-04-29T22:29:23.612Z,5.30
2019-04-29T22:31:50.396Z,4.40
2019-04-29T22:34:19.255Z,5.70
2019-04-29T22:36:48.162Z,5.00
2019-04-29T22:39:16.039Z,5.03
2019-04-29T22:41:58.266Z,4.70
2019-04-29T22:44:26.518Z,5.53
2019-04-29T22:46:53.259Z,4.97
2019-04-29T22:49:27.138Z,4.97
2019-04-29T22:51:49.725Z,6.37
2019-04-29T22:54:17.795Z,5.47
2019-04-29T22:56:52.098Z,4.77
2019-04-29T22:59:19.056Z,5.60
2019-04-29T23:01:49.155Z,5.27
2019-04-29T23:04:17.894Z,5.20
2019-04-29T23:06:48.016Z,5.47
2019-04-29T23:09:13.647Z,5.90
2019-04-29T23:11:41.351Z,5.77
2019-04-29T23:14:10.295Z,5.13
2019-04-29T23:16:37.298Z,5.60
2019-04-29T23:19:05.154Z,6.43
2019-04-29T23:21:55.981Z,5.10
2019-04-29T23:24:34.652Z,5.60
2019-04-29T23:27:06.090Z,5.20
2019-04-29T23:29:37.070Z,6.07
2019-04-29T23:32:04.743Z,5.00
2019-04-29T23:34:32.003Z,5.80
2019-04-29T23:37:02.323Z,5.90
2019-04-29T23:39:30.356Z,5.77
2019-04-29T23:41:57.027Z,5.77
2019-04-29T23:44:24.230Z,5.33
2019-04-29T23:46:50.933Z,4.83
2019-04-29T23:49:18.151Z,5.27
2019-04-29T23:51:46.477Z,5.10
2019-04-29T23:54:15.153Z,5.00
2019-04-29T23:57:01.658Z,5.30
2019-04-29T23:59:31.299Z,5.33
